Time;durP1;ratioP1;P1;durP2;ratioP2;P2;SDS_P1;SDS_P2;PMS_P1;PMS_P2;Temp;Humidity;BMP_temperature;BMP_pressure;BME280_temperature;BME280_humidity;BME280_pressure;Samples;Min_cycle;Max_cycle;Signal;HPM_P1;HPM_P2
2021/10/29 00:01:12;;;;;;;55.45;24.58;;;;;;;7.59;90.72;100926.53;5064769;28;20056;-74
2021/10/29 00:03:38;;;;;;;57.58;26.27;;;;;;;7.53;90.88;100927.03;5062504;28;20045;-75
2021/10/29 00:06:04;;;;;;;57.33;27.33;;;;;;;7.49;91.18;100920.50;5065338;28;20469;-75
2021/10/29 00:08:30;;;;;;;49.92;25.52;;;;;;;7.55;91.13;100925.16;5066255;28;20488;-75
2021/10/29 00:10:55;;;;;;;52.55;26.15;;;;;;;7.52;91.36;100925.41;5037286;28;20060;-74
2021/10/29 00:13:21;;;;;;;53.60;25.38;;;;;;;7.50;91.41;100926.50;5060921;28;20642;-76
2021/10/29 00:15:47;;;;;;;50.95;24.50;;;;;;;7.54;91.34;100925.28;5050671;28;20024;-74
2021/10/29 00:18:12;;;;;;;50.08;25.13;;;;;;;7.53;91.56;100923.66;5063584;28;20462;-77
2021/10/29 00:20:38;;;;;;;50.22;25.30;;;;;;;7.56;91.96;100919.03;5055285;28;20526;-74
2021/10/29 00:23:03;;;;;;;45.03;22.67;;;;;;;7.55;91.85;100920.00;5067191;28;20029;-74
2021/10/29 00:25:29;;;;;;;48.63;23.77;;;;;;;7.54;91.69;100917.56;5045420;28;20398;-76
2021/10/29 00:27:55;;;;;;;46.72;22.73;;;;;;;7.62;91.85;100915.09;5064419;28;20029;-75
2021/10/29 00:30:20;;;;;;;49.72;24.05;;;;;;;7.63;91.78;100914.16;5045155;28;20024;-75
2021/10/29 00:32:46;;;;;;;42.75;22.75;;;;;;;7.67;91.72;100919.88;5068872;28;20042;-76
2021/10/29 00:35:12;;;;;;;45.83;21.98;;;;;;;7.62;91.86;100920.25;5062289;28;20573;-76
2021/10/29 00:37:38;;;;;;;45.45;23.17;;;;;;;7.59;92.15;100929.09;5054305;28;20043;-74
2021/10/29 00:40:06;;;;;;;47.13;22.52;;;;;;;7.71;91.90;100923.81;5046872;28;20037;-75
2021/10/29 00:42:31;;;;;;;42.85;21.73;;;;;;;7.74;91.60;100921.78;5029385;28;20044;-76
2021/10/29 00:44:57;;;;;;;43.45;21.83;;;;;;;7.75;91.41;100913.06;5057881;28;20028;-77
2021/10/29 00:47:23;;;;;;;40.67;21.35;;;;;;;7.74;91.29;100915.78;5031335;28;20413;-77
2021/10/29 00:49:48;;;;;;;41.00;22.05;;;;;;;7.69;91.68;100920.56;5048175;28;20070;-74
2021/10/29 00:52:14;;;;;;;42.42;22.77;;;;;;;7.77;91.57;100916.34;5044445;28;20077;-76
2021/10/29 00:54:40;;;;;;;37.22;19.90;;;;;;;7.75;91.54;100905.34;5029744;28;20444;-76
2021/10/29 00:57:05;;;;;;;42.40;22.27;;;;;;;7.74;91.49;100911.47;5066817;28;20086;-75
2021/10/29 00:59:32;;;;;;;44.38;21.33;;;;;;;7.83;91.58;100903.84;5045507;28;20123;-79
2021/10/29 01:01:58;;;;;;;44.13;21.80;;;;;;;7.84;91.28;100908.06;5027341;28;20033;-74
2021/10/29 01:04:25;;;;;;;40.15;20.75;;;;;;;7.84;91.57;100908.88;5063580;28;20111;-74
2021/10/29 01:06:50;;;;;;;42.78;22.60;;;;;;;7.88;91.43;100899.91;5033632;28;20043;-75
2021/10/29 01:09:16;;;;;;;41.42;21.20;;;;;;;7.95;91.24;100903.59;5061152;28;20032;-75
2021/10/29 01:11:43;;;;;;;44.70;21.95;;;;;;;7.92;90.93;100896.09;5048943;28;20055;-76
2021/10/29 01:14:09;;;;;;;45.58;21.92;;;;;;;7.95;91.06;100897.63;5038721;28;20671;-80
2021/10/29 01:16:34;;;;;;;43.28;21.75;;;;;;;7.93;91.52;100897.75;5048739;28;20512;-77
2021/10/29 01:19:00;;;;;;;45.15;21.60;;;;;;;7.88;91.72;100897.34;5059399;28;20040;-74
2021/10/29 01:21:26;;;;;;;43.95;21.98;;;;;;;7.84;91.95;100895.16;5043717;28;20032;-75
2021/10/29 01:23:52;;;;;;;44.63;21.90;;;;;;;7.93;91.79;100895.16;5040580;28;20035;-75
2021/10/29 01:26:17;;;;;;;45.55;20.92;;;;;;;7.93;91.72;100891.75;5065140;28;20036;-75
2021/10/29 01:28:45;;;;;;;39.10;20.27;;;;;;;7.92;91.34;100903.84;5064321;28;20032;-74
2021/10/29 01:31:11;;;;;;;38.90;20.58;;;;;;;7.95;91.64;100893.25;5043183;28;20531;-75
2021/10/29 01:33:37;;;;;;;43.08;21.23;;;;;;;7.89;91.85;100893.81;5040087;28;20052;-75
2021/10/29 01:36:04;;;;;;;44.90;22.05;;;;;;;7.86;91.53;100891.50;5059783;28;20036;-75
2021/10/29 01:38:32;;;;;;;38.60;19.85;;;;;;;7.87;91.69;100890.53;5039501;28;20043;-75
2021/10/29 01:40:59;;;;;;;43.72;21.25;;;;;;;7.85;91.73;100883.88;5048121;28;20032;-80
2021/10/29 01:43:25;;;;;;;39.80;20.70;;;;;;;7.83;92.03;100885.78;5041097;28;20028;-76
2021/10/29 01:45:51;;;;;;;39.20;20.30;;;;;;;7.88;91.42;100884.41;5061835;28;20490;-76
2021/10/29 01:48:16;;;;;;;37.90;20.45;;;;;;;7.87;91.84;100884.56;5044068;28;20025;-75
2021/10/29 01:50:42;;;;;;;40.63;21.60;;;;;;;7.85;91.59;100879.50;5043773;28;20106;-76
2021/10/29 01:53:07;;;;;;;41.40;22.45;;;;;;;7.81;91.88;100875.59;5026028;28;20022;-76
2021/10/29 01:55:33;;;;;;;41.17;20.67;;;;;;;7.82;91.93;100873.81;5054662;28;20040;-75
2021/10/29 01:57:58;;;;;;;43.85;22.02;;;;;;;7.74;91.92;100872.75;5033474;28;20031;-77
2021/10/29 02:00:24;;;;;;;43.22;21.40;;;;;;;7.71;92.07;100867.84;5042411;28;20098;-78
2021/10/29 02:02:52;;;;;;;38.90;20.67;;;;;;;7.79;91.91;100856.84;5024850;28;20032;-75
2021/10/29 02:05:17;;;;;;;45.53;22.60;;;;;;;7.78;91.92;100857.81;5060106;28;20035;-75
2021/10/29 02:07:43;;;;;;;43.40;23.13;;;;;;;7.67;92.22;100855.34;5039680;28;20044;-75
2021/10/29 02:10:09;;;;;;;44.10;23.25;;;;;;;7.66;92.48;100854.53;5058566;28;20041;-75
2021/10/29 02:12:34;;;;;;;44.92;21.17;;;;;;;7.65;92.26;100852.91;5054463;28;20120;-77
2021/10/29 02:15:00;;;;;;;42.80;22.48;;;;;;;7.72;92.00;100845.41;5058138;28;20047;-75
2021/10/29 02:17:26;;;;;;;42.13;21.05;;;;;;;7.74;91.88;100840.94;5032746;28;20025;-78
2021/10/29 02:19:52;;;;;;;43.03;21.38;;;;;;;7.78;91.85;100837.16;5047235;28;20098;-77
2021/10/29 02:22:17;;;;;;;44.83;21.45;;;;;;;7.74;91.64;100835.78;5024722;28;20064;-77
2021/10/29 02:24:43;;;;;;;41.28;20.10;;;;;;;7.72;91.83;100837.69;5030373;28;20155;-75
2021/10/29 02:27:08;;;;;;;44.75;22.40;;;;;;;7.65;91.93;100829.69;5062148;28;20033;-77
2021/10/29 02:29:35;;;;;;;41.38;21.30;;;;;;;7.64;92.27;100832.38;5029852;28;20044;-75
2021/10/29 02:32:00;;;;;;;46.60;23.13;;;;;;;7.67;91.82;100826.97;5064620;28;20074;-75
2021/10/29 02:34:26;;;;;;;44.40;20.55;;;;;;;7.73;91.43;100826.41;5048965;28;20040;-75
2021/10/29 02:36:52;;;;;;;42.28;21.88;;;;;;;7.66;91.50;100825.31;5048782;28;20237;-75
2021/10/29 02:39:18;;;;;;;44.42;22.60;;;;;;;7.68;91.82;100819.06;5059592;28;20443;-76
2021/10/29 02:41:44;;;;;;;42.78;21.90;;;;;;;7.64;91.74;100811.75;5049821;28;20261;-75
2021/10/29 02:44:09;;;;;;;45.30;21.75;;;;;;;7.62;91.63;100816.22;5065259;28;20840;-75
2021/10/29 02:46:36;;;;;;;45.15;21.45;;;;;;;7.64;91.65;100815.13;5069469;28;20036;-76
2021/10/29 02:49:02;;;;;;;41.28;19.83;;;;;;;7.70;91.56;100812.00;5061690;28;20032;-75
2021/10/29 02:51:29;;;;;;;39.80;20.15;;;;;;;7.66;91.60;100808.06;5056506;28;20551;-76
2021/10/29 02:53:55;;;;;;;40.13;19.33;;;;;;;7.65;91.50;100811.59;5061876;28;20036;-76
2021/10/29 02:56:20;;;;;;;40.17;19.25;;;;;;;7.71;91.30;100807.66;5052783;28;20362;-75
2021/10/29 02:58:46;;;;;;;41.92;20.17;;;;;;;7.70;91.30;100800.88;5065823;28;20200;-75
2021/10/29 03:01:11;;;;;;;38.22;19.35;;;;;;;7.62;91.38;100795.56;5061767;28;20029;-75
2021/10/29 03:03:37;;;;;;;42.03;21.05;;;;;;;7.61;91.33;100799.94;5066047;28;20055;-78
2021/10/29 03:06:03;;;;;;;38.53;19.45;;;;;;;7.68;91.77;100789.88;5065377;28;20040;-75
2021/10/29 03:08:28;;;;;;;38.63;19.65;;;;;;;7.66;91.29;100790.00;5064800;28;20025;-76
2021/10/29 03:10:54;;;;;;;37.40;18.67;;;;;;;7.66;91.20;100779.66;5047751;28;20086;-76
2021/10/29 03:13:21;;;;;;;40.33;20.00;;;;;;;7.61;91.22;100781.88;5070021;28;20032;-75
2021/10/29 03:15:49;;;;;;;44.38;19.88;;;;;;;7.67;91.53;100777.94;5047616;28;20032;-81
2021/10/29 03:18:14;;;;;;;40.33;18.90;;;;;;;7.70;90.94;100786.19;5045573;28;20033;-75
2021/10/29 03:20:40;;;;;;;36.60;20.52;;;;;;;7.57;91.43;100780.50;5067706;28;20336;-76
2021/10/29 03:23:06;;;;;;;40.95;19.20;;;;;;;7.56;91.93;100779.69;5042663;28;20268;-76
2021/10/29 03:25:32;;;;;;;36.10;19.10;;;;;;;7.64;91.29;100783.34;5043846;28;20025;-75
2021/10/29 03:27:57;;;;;;;37.03;18.02;;;;;;;7.68;91.34;100776.97;5060081;28;20676;-77
2021/10/29 03:30:23;;;;;;;38.50;18.27;;;;;;;7.71;91.28;100771.53;5066051;28;20381;-75
2021/10/29 03:32:48;;;;;;;34.38;18.27;;;;;;;7.73;91.02;100775.59;5066522;28;20029;-76
2021/10/29 03:35:14;;;;;;;37.92;19.20;;;;;;;7.72;91.02;100779.16;5050167;28;20028;-76
2021/10/29 03:43:04;;;;;;;39.47;21.00;;;;;;;7.64;90.99;100771.25;5040000;28;20032;-76
2021/10/29 03:45:30;;;;;;;42.17;20.27;;;;;;;7.69;91.00;100773.44;5045093;28;20123;-76
2021/10/29 03:47:59;;;;;;;43.35;20.50;;;;;;;7.67;90.86;100763.25;5031992;28;20032;-77
2021/10/29 03:50:28;;;;;;;43.90;20.63;;;;;;;7.64;91.02;100768.66;5045151;28;20062;-76
2021/10/29 03:53:02;;;;;;;42.58;21.45;;;;;;;7.66;91.03;100768.53;5043451;28;20033;-76
2021/10/29 03:55:41;;;;;;;41.45;20.65;;;;;;;7.60;91.14;100760.38;5048015;28;20085;-79
2021/10/29 03:58:07;;;;;;;46.00;20.85;;;;;;;7.53;91.55;100763.66;5039757;28;20113;-76
2021/10/29 04:00:33;;;;;;;42.22;18.60;;;;;;;7.56;91.44;100765.97;5062600;28;20024;-76
2021/10/29 04:03:03;;;;;;;39.92;19.67;;;;;;;7.62;91.30;100767.19;5042621;28;20082;-75
2021/10/29 04:05:30;;;;;;;37.08;18.25;;;;;;;7.52;91.26;100775.75;5048244;28;20436;-75
2021/10/29 04:07:56;;;;;;;35.08;18.33;;;;;;;7.48;91.16;100763.25;5065926;28;20087;-76
2021/10/29 04:10:28;;;;;;;37.38;17.98;;;;;;;7.47;91.46;100767.59;5067686;28;20036;-75
2021/10/29 04:12:55;;;;;;;37.75;18.95;;;;;;;7.50;91.40;100759.59;5043182;28;20029;-76
2021/10/29 04:15:21;;;;;;;46.67;20.35;;;;;;;7.46;91.38;100760.00;5043925;28;20036;-77
2021/10/29 04:17:47;;;;;;;35.83;19.08;;;;;;;7.56;91.19;100763.41;5057314;28;20036;-76
2021/10/29 04:20:13;;;;;;;45.25;20.83;;;;;;;7.45;91.39;100758.38;5062136;28;20489;-75
2021/10/29 04:22:38;;;;;;;36.85;19.20;;;;;;;7.48;91.28;100763.25;5069544;28;20024;-77
2021/10/29 04:25:04;;;;;;;41.08;20.08;;;;;;;7.47;91.05;100759.84;5042077;28;20036;-76
2021/10/29 04:27:32;;;;;;;37.33;18.27;;;;;;;7.51;91.21;100766.38;5055997;28;20124;-75
2021/10/29 04:29:59;;;;;;;41.97;17.98;;;;;;;7.54;90.85;100765.31;5063702;28;20036;-75
2021/10/29 04:32:25;;;;;;;38.00;18.98;;;;;;;7.50;91.08;100769.91;5060683;28;20036;-76
2021/10/29 04:34:51;;;;;;;38.88;17.90;;;;;;;7.54;91.15;100763.53;5041441;28;20042;-75
2021/10/29 04:37:18;;;;;;;37.63;17.40;;;;;;;7.51;91.00;100766.38;5031497;28;20445;-76
2021/10/29 04:39:45;;;;;;;43.53;19.92;;;;;;;7.43;90.95;100755.94;5058245;28;20448;-76
2021/10/29 04:42:10;;;;;;;38.83;19.50;;;;;;;7.35;91.22;100756.59;5018489;23;20045;-77
2021/10/29 04:44:36;;;;;;;41.78;18.60;;;;;;;7.47;90.78;100752.13;4997437;28;20039;-76
2021/10/29 04:47:01;;;;;;;39.13;19.52;;;;;;;7.49;90.65;100750.22;5018717;28;20033;-76
2021/10/29 04:49:27;;;;;;;45.10;18.77;;;;;;;7.47;90.97;100744.38;5018571;28;20110;-76
2021/10/29 04:51:52;;;;;;;39.30;18.70;;;;;;;7.45;90.74;100735.97;4991193;28;20038;-75
2021/10/29 04:54:18;;;;;;;35.95;17.98;;;;;;;7.35;91.38;100733.38;4984426;28;20051;-75
2021/10/29 04:56:43;;;;;;;38.33;18.25;;;;;;;7.45;90.98;100737.72;4982865;28;20026;-76
2021/10/29 04:59:11;;;;;;;36.95;17.63;;;;;;;7.31;91.51;100729.47;4983203;28;20034;-76
2021/10/29 05:01:36;;;;;;;33.38;16.92;;;;;;;7.32;91.18;100732.84;4988445;28;20030;-76
2021/10/29 05:04:02;;;;;;;40.50;19.45;;;;;;;7.38;91.40;100738.28;4986582;28;20387;-75
2021/10/29 05:06:28;;;;;;;42.10;19.08;;;;;;;7.36;91.12;100734.19;4993278;28;20119;-75
2021/10/29 05:08:53;;;;;;;39.50;18.10;;;;;;;7.45;90.69;100722.25;4987487;28;20038;-75
2021/10/29 05:11:19;;;;;;;38.78;18.17;;;;;;;7.47;90.63;100734.06;4972762;28;20079;-75
2021/10/29 05:13:44;;;;;;;37.92;17.05;;;;;;;7.41;90.56;100735.41;4980062;28;20050;-75
2021/10/29 05:16:10;;;;;;;43.22;19.30;;;;;;;7.41;90.92;100729.44;4992982;28;20033;-76
2021/10/29 05:18:35;;;;;;;43.55;19.85;;;;;;;7.45;90.71;100722.25;4980102;28;20018;-75
2021/10/29 05:21:01;;;;;;;39.53;19.02;;;;;;;7.42;90.37;100723.31;4990406;28;20068;-76
2021/10/29 05:23:26;;;;;;;39.05;17.90;;;;;;;7.52;90.02;100718.19;4987149;28;20091;-76
2021/10/29 05:25:52;;;;;;;42.92;18.25;;;;;;;7.48;90.53;100719.38;4987230;28;20069;-76
2021/10/29 05:28:18;;;;;;;39.70;18.50;;;;;;;7.48;90.17;100712.47;4986862;28;20334;-75
2021/10/29 05:30:43;;;;;;;36.85;19.33;;;;;;;7.47;90.06;100708.25;4978071;28;20102;-76
2021/10/29 05:33:08;;;;;;;38.65;19.23;;;;;;;7.35;90.53;100707.59;4991240;28;20460;-76
2021/10/29 05:35:34;;;;;;;40.42;21.10;;;;;;;7.44;90.11;100716.28;5004024;28;20035;-76
2021/10/29 05:37:59;;;;;;;39.92;19.63;;;;;;;7.41;90.38;100709.63;4985296;28;20038;-75
2021/10/29 05:40:25;;;;;;;37.95;18.92;;;;;;;7.46;90.35;100709.22;4984235;28;20485;-75
2021/10/29 05:42:50;;;;;;;38.55;18.85;;;;;;;7.47;90.30;100713.41;4975898;28;20030;-76
2021/10/29 05:45:16;;;;;;;34.08;16.95;;;;;;;7.49;90.51;100706.34;4984890;28;20033;-76
2021/10/29 05:47:42;;;;;;;33.70;16.63;;;;;;;7.48;90.09;100704.75;4986110;28;20061;-76
2021/10/29 05:50:10;;;;;;;33.50;16.90;;;;;;;7.54;90.21;100700.78;4986660;28;20660;-76
2021/10/29 05:52:39;;;;;;;32.53;17.00;;;;;;;7.61;89.76;100704.44;4989761;28;20065;-76
2021/10/29 05:55:19;;;;;;;33.47;17.00;;;;;;;7.61;89.49;100701.88;4996267;28;20095;-75
2021/10/29 05:57:48;;;;;;;46.05;19.63;;;;;;;7.60;89.49;100702.81;4975683;28;20121;-75
2021/10/29 06:00:16;;;;;;;42.47;20.40;;;;;;;7.55;89.81;100700.66;4986192;28;20045;-75
2021/10/29 06:02:42;;;;;;;43.05;20.10;;;;;;;7.55;89.55;100699.81;4985588;28;20577;-75
2021/10/29 06:05:08;;;;;;;44.80;19.83;;;;;;;7.58;89.52;100700.34;4982690;28;20117;-76
2021/10/29 06:07:34;;;;;;;37.55;17.98;;;;;;;7.58;89.38;100692.63;4982396;28;20030;-75
2021/10/29 06:10:00;;;;;;;43.78;17.48;;;;;;;7.67;89.31;100698.72;4990772;28;20052;-75
2021/10/29 06:12:26;;;;;;;40.42;18.65;;;;;;;7.58;89.76;100691.81;4982376;28;20494;-78
2021/10/29 06:14:51;;;;;;;39.03;17.75;;;;;;;7.66;89.47;100691.91;4975482;28;20038;-75
2021/10/29 06:17:18;;;;;;;38.70;17.90;;;;;;;7.70;89.56;100692.47;4985814;28;20038;-76
2021/10/29 06:19:44;;;;;;;41.55;18.90;;;;;;;7.68;89.15;100684.84;4980894;28;20044;-76
2021/10/29 06:22:24;;;;;;;38.85;18.65;;;;;;;7.72;89.27;100686.22;4988413;28;20026;-75
2021/10/29 06:24:51;;;;;;;41.63;17.30;;;;;;;7.76;89.08;100689.31;4987058;28;20069;-76
2021/10/29 06:29:46;;;;;;;41.42;18.52;;;;;;;7.79;89.02;100683.88;4983554;28;20053;-75
2021/10/29 06:32:13;;;;;;;34.95;17.48;;;;;;;7.85;88.48;100695.41;4996569;28;20044;-76
2021/10/29 06:34:39;;;;;;;37.08;18.80;;;;;;;7.80;88.48;100688.09;4986044;28;20047;-76
2021/10/29 06:37:07;;;;;;;41.40;18.50;;;;;;;7.77;88.79;100701.28;4992552;28;20030;-76
2021/10/29 06:39:34;;;;;;;42.28;18.52;;;;;;;7.74;88.48;100697.22;4984852;28;20041;-77
2021/10/29 06:42:05;;;;;;;45.42;19.70;;;;;;;7.82;88.55;100706.84;4988534;28;20112;-76
2021/10/29 06:44:40;;;;;;;38.70;19.08;;;;;;;7.81;88.58;100689.72;4991469;28;20045;-78
2021/10/29 07:41:07;;;;;;;42.17;19.00;;;;;;;8.14;87.05;100697.91;4980078;28;20042;-75
2021/10/29 07:43:37;;;;;;;40.67;18.42;;;;;;;8.19;87.00;100696.53;4985280;28;20133;-76
2021/10/29 07:46:04;;;;;;;44.28;18.73;;;;;;;8.28;86.18;100697.41;4978710;28;20553;-76
2021/10/29 07:48:32;;;;;;;39.53;18.55;;;;;;;8.32;86.32;100698.75;4980679;28;20088;-75
2021/10/29 07:50:58;;;;;;;39.65;18.27;;;;;;;8.41;85.94;100685.94;4977051;28;20037;-79
2021/10/29 07:53:25;;;;;;;38.28;18.30;;;;;;;8.37;85.91;100691.38;4967771;28;20084;-74
2021/10/29 07:55:51;;;;;;;37.80;18.10;;;;;;;8.45;85.85;100689.88;4985618;28;20090;-77
2021/10/29 07:58:17;;;;;;;39.40;19.05;;;;;;;8.61;85.44;100684.91;4982737;28;20053;-75
2021/10/29 08:00:42;;;;;;;40.15;18.30;;;;;;;8.65;85.07;100690.59;4984987;28;20506;-75
2021/10/29 08:03:08;;;;;;;37.67;17.38;;;;;;;8.76;84.52;100686.03;4987258;28;20042;-77
2021/10/29 08:05:36;;;;;;;40.30;18.52;;;;;;;8.80;84.26;100698.63;4975729;28;20088;-77
2021/10/29 08:08:02;;;;;;;43.08;19.02;;;;;;;8.81;83.90;100692.53;4975044;28;20049;-76
2021/10/29 08:10:29;;;;;;;37.65;17.67;;;;;;;8.83;83.98;100693.19;4986222;28;20133;-74
2021/10/29 08:12:54;;;;;;;42.45;18.50;;;;;;;9.06;83.47;100693.56;4975907;28;20053;-75
2021/10/29 08:15:20;;;;;;;39.22;18.23;;;;;;;9.37;81.88;100686.22;4987904;28;20041;-80
2021/10/29 08:17:45;;;;;;;33.60;17.00;;;;;;;9.69;80.73;100689.97;4979679;28;20030;-75
2021/10/29 08:20:14;;;;;;;38.30;17.08;;;;;;;9.82;79.95;100692.97;4976966;28;20038;-75
2021/10/29 08:22:40;;;;;;;33.08;15.75;;;;;;;9.98;79.25;100694.00;4984324;28;20042;-74
2021/10/29 08:25:08;;;;;;;36.67;15.27;;;;;;;9.85;79.43;100692.69;4984182;28;20084;-75
2021/10/29 08:27:34;;;;;;;36.47;17.10;;;;;;;9.69;80.08;100688.19;4980727;28;20043;-76
2021/10/29 08:29:59;;;;;;;46.00;15.70;;;;;;;9.63;80.54;100693.19;4992465;28;20402;-75
2021/10/29 08:32:26;;;;;;;31.92;15.13;;;;;;;9.68;80.91;100685.75;4999609;28;20065;-75
2021/10/29 08:34:51;;;;;;;32.58;15.10;;;;;;;9.78;80.61;100690.84;4986651;28;20394;-74
2021/10/29 08:37:17;;;;;;;35.40;15.95;;;;;;;9.97;79.68;100692.41;4994850;28;20026;-74
2021/10/29 08:39:43;;;;;;;31.45;14.57;;;;;;;9.89;79.99;100680.22;4965954;28;20452;-74
2021/10/29 08:42:09;;;;;;;30.10;14.60;;;;;;;10.04;79.26;100685.63;4966166;28;20062;-79
2021/10/29 08:44:36;;;;;;;30.90;15.23;;;;;;;10.02;79.82;100680.63;4979974;28;20043;-74
2021/10/29 08:47:03;;;;;;;30.00;15.25;;;;;;;10.14;79.33;100681.16;4963989;28;20042;-75
2021/10/29 08:49:30;;;;;;;31.42;13.65;;;;;;;10.37;78.82;100684.00;4964467;28;20031;-77
2021/10/29 08:51:56;;;;;;;23.95;13.23;;;;;;;10.41;78.32;100674.94;4987220;28;20038;-74
2021/10/29 08:54:23;;;;;;;28.55;14.32;;;;;;;10.45;78.78;100668.50;4982250;28;20081;-75
2021/10/29 08:56:49;;;;;;;30.10;13.88;;;;;;;10.37;77.69;100680.63;4984591;28;20039;-79
2021/10/29 08:59:20;;;;;;;33.13;15.00;;;;;;;10.46;78.50;100669.31;4996677;28;20030;-76
2021/10/29 09:01:55;;;;;;;36.22;14.60;;;;;;;10.35;78.59;100657.44;4992944;28;20080;-76
2021/10/29 09:32:47;;;;;;;27.27;14.75;;;;;;;10.05;80.98;100618.13;4969989;28;20035;-73
2021/10/29 09:35:15;;;;;;;30.52;14.02;;;;;;;10.09;80.90;100605.66;4982447;28;20153;-77
2021/10/29 09:38:03;;;;;;;31.77;14.77;;;;;;;10.19;80.39;100610.69;4978569;28;20034;-78
2021/10/29 09:41:04;;;;;;;31.80;15.63;;;;;;;10.28;80.33;100623.56;4994525;28;20467;-78
2021/10/29 09:43:44;;;;;;;24.90;12.93;;;;;;;10.28;80.17;100614.94;4983730;28;20046;-77
2021/10/29 09:46:09;;;;;;;26.83;12.50;;;;;;;10.32;80.66;100616.28;4968156;28;20076;-75
2021/10/29 09:48:44;;;;;;;28.48;12.70;;;;;;;10.41;80.61;100610.13;4981935;28;20083;-77
2021/10/29 09:51:14;;;;;;;24.27;13.45;;;;;;;10.40;80.40;100603.34;4983874;28;20034;-76
2021/10/29 09:56:45;;;;;;;24.85;13.07;;;;;;;10.64;79.80;100596.56;4975394;28;20113;-81
2021/10/29 09:58:59;;;;;;;32.05;12.77;;;;;;;10.76;79.53;100595.28;4976074;28;20043;-78
2021/10/29 10:01:27;;;;;;;31.58;13.27;;;;;;;10.70;79.71;100590.75;4982974;28;20441;-76
2021/10/29 10:03:53;;;;;;;22.35;12.63;;;;;;;10.73;79.59;100582.63;5014087;28;20027;-75
2021/10/29 10:06:24;;;;;;;22.50;12.10;;;;;;;10.87;79.42;100597.56;4985054;28;20041;-75
2021/10/29 10:08:51;;;;;;;22.55;11.98;;;;;;;10.84;79.25;100586.69;5066013;28;20038;-75
2021/10/29 10:11:18;;;;;;;27.25;12.38;;;;;;;10.89;79.45;100584.41;4977076;28;20042;-75
2021/10/29 10:13:45;;;;;;;27.75;11.13;;;;;;;11.04;78.87;100577.59;4982731;28;20060;-81
2021/10/29 10:16:12;;;;;;;25.70;11.73;;;;;;;11.09;78.41;100579.69;4985958;28;20095;-76
2021/10/29 10:18:40;;;;;;;23.00;11.02;;;;;;;11.07;78.39;100579.84;4984885;28;20023;-75
2021/10/29 10:21:10;;;;;;;22.92;12.25;;;;;;;11.10;77.97;100568.34;4983781;28;20030;-83
2021/10/29 10:23:39;;;;;;;26.63;13.02;;;;;;;11.20;77.90;100573.34;4996773;28;20044;-77
2021/10/29 10:43:56;;;;;;;18.35;10.60;;;;;;;11.58;77.07;100539.81;4989962;28;20053;-75
2021/10/29 10:46:05;;;;;;;21.90;10.02;;;;;;;11.68;77.07;100527.44;4999802;28;20083;-78
2021/10/29 10:48:32;;;;;;;22.35;10.80;;;;;;;11.73;76.43;100525.13;4998965;28;20736;-76
2021/10/29 10:51:46;;;;;;;25.30;10.15;;;;;;;11.77;77.07;100523.81;4992257;28;20133;-77
2021/10/29 10:54:29;;;;;;;17.80;9.48;;;;;;;11.92;76.67;100516.13;4986807;28;20469;-76
2021/10/29 11:11:02;;;;;;;17.10;8.90;;;;;;;12.65;74.45;100480.16;4991492;28;20141;-76
2021/10/29 11:13:43;;;;;;;18.88;9.57;;;;;;;12.66;74.90;100479.97;4997244;28;20061;-76
2021/10/29 11:16:35;;;;;;;33.78;10.38;;;;;;;12.77;74.66;100477.91;4987599;28;20570;-80
2021/10/29 11:19:23;;;;;;;16.85;8.90;;;;;;;12.82;74.56;100465.19;4990073;28;20121;-75
2021/10/29 11:21:55;;;;;;;15.82;8.75;;;;;;;12.94;74.08;100471.59;4999125;28;20042;-77
2021/10/29 11:24:37;;;;;;;15.98;8.18;;;;;;;13.10;73.79;100467.97;4970255;28;20058;-76
2021/10/29 11:27:05;;;;;;;24.77;7.93;;;;;;;13.12;73.24;100476.41;4986668;28;20038;-81
2021/10/29 11:29:32;;;;;;;15.45;7.25;;;;;;;13.20;73.18;100470.28;4988163;28;20031;-77
2021/10/29 11:31:58;;;;;;;15.02;8.05;;;;;;;13.15;73.48;100473.47;4992411;28;20306;-75
2021/10/29 11:34:24;;;;;;;12.80;7.55;;;;;;;13.21;73.77;100482.34;5003154;28;20030;-76
2021/10/29 11:36:51;;;;;;;20.75;7.28;;;;;;;13.21;74.26;100470.13;4983135;28;20054;-75
2021/10/29 11:39:21;;;;;;;14.43;7.78;;;;;;;13.44;72.94;100470.03;4984361;28;20030;-81
2021/10/29 11:41:49;;;;;;;14.32;7.30;;;;;;;13.51;72.64;100464.91;4970189;28;20054;-77
2021/10/29 11:44:21;;;;;;;12.38;6.15;;;;;;;13.63;72.24;100465.22;4996170;28;20035;-78
2021/10/29 11:46:48;;;;;;;12.23;6.60;;;;;;;13.68;71.27;100462.09;4987407;28;20042;-76
2021/10/29 11:49:28;;;;;;;16.60;7.75;;;;;;;13.72;70.82;100458.13;4988697;28;20026;-75
2021/10/29 11:51:55;;;;;;;11.80;6.18;;;;;;;13.67;70.79;100458.66;4971005;28;20272;-76
2021/10/29 11:54:25;;;;;;;14.60;6.90;;;;;;;13.80;70.35;100452.78;4982565;28;20023;-76
2021/10/29 12:07:32;;;;;;;11.32;6.55;;;;;;;13.90;70.40;100444.66;4981019;28;20042;-76
2021/10/29 12:10:02;;;;;;;10.88;5.95;;;;;;;13.92;69.49;100438.28;4986812;28;20038;-78
2021/10/29 12:12:29;;;;;;;12.30;6.00;;;;;;;13.92;70.32;100432.22;4991221;28;20037;-76
2021/10/29 12:15:01;;;;;;;11.32;5.82;;;;;;;14.00;69.87;100419.09;4981070;28;20023;-75
2021/10/29 12:17:51;;;;;;;10.25;6.03;;;;;;;14.06;69.22;100414.94;4981380;28;20063;-78
2021/10/29 12:20:21;;;;;;;13.82;6.18;;;;;;;14.06;69.08;100407.91;4986423;28;20095;-76
2021/10/29 12:22:53;;;;;;;11.73;6.05;;;;;;;14.06;69.36;100401.88;4986189;28;20038;-76
2021/10/29 12:25:53;;;;;;;16.05;5.95;;;;;;;14.03;69.68;100395.22;4981255;28;20483;-76
2021/10/29 12:28:25;;;;;;;12.27;6.03;;;;;;;14.08;69.55;100397.28;5000263;28;20030;-77
2021/10/29 12:53:47;;;;;;;12.98;4.90;;;;;;;14.60;68.86;100347.31;4974092;28;20494;-78
2021/10/29 13:01:59;;;;;;;7.68;4.00;;;;;;;15.10;67.52;100341.88;4992402;28;20043;-76
2021/10/29 13:04:45;;;;;;;8.85;4.15;;;;;;;15.29;67.38;100326.44;4982954;28;20038;-76
2021/10/29 13:07:12;;;;;;;13.60;4.55;;;;;;;15.34;68.31;100324.84;4985508;28;20034;-76
2021/10/29 13:09:39;;;;;;;10.85;3.55;;;;;;;15.67;64.88;100323.25;4986457;28;20049;-78
2021/10/29 13:12:18;;;;;;;10.35;3.22;;;;;;;15.75;65.79;100312.66;4975431;28;20034;-77
2021/10/29 13:15:01;;;;;;;6.38;2.72;;;;;;;15.72;65.87;100311.19;4982060;28;20388;-76
2021/10/29 13:17:34;;;;;;;10.68;2.95;;;;;;;15.93;64.00;100312.03;4971366;28;20188;-76
2021/10/29 14:02:11;;;;;;;16.45;3.08;;;;;;;16.72;57.38;100297.91;4994315;28;20095;-76
2021/10/29 14:29:36;;;;;;;5.00;2.17;;;;;;;17.14;55.18;100271.34;5000480;28;20288;-78
2021/10/29 14:34:43;;;;;;;6.95;2.40;;;;;;;17.05;55.63;100283.88;5002142;28;20042;-76
2021/10/29 14:37:56;;;;;;;5.65;2.20;;;;;;;16.91;56.47;100296.28;4997926;28;20038;-76
2021/10/29 14:40:26;;;;;;;9.15;2.33;;;;;;;16.92;56.28;100297.06;4986464;28;20050;-77
2021/10/29 14:42:54;;;;;;;7.07;2.55;;;;;;;16.82;57.68;100297.53;4987236;28;20069;-78
2021/10/29 14:48:39;;;;;;;5.10;2.15;;;;;;;16.74;57.04;100297.72;4966971;28;20051;-81
2021/10/29 15:14:49;;;;;;;11.18;2.63;;;;;;;16.50;57.75;100307.88;5005430;28;20046;-76
2021/10/29 15:16:02;;;;;;;5.45;2.25;;;;;;;16.46;57.74;100293.63;4989220;28;20511;-75
2021/10/29 15:29:34;;;;;;;5.55;2.38;;;;;;;15.93;59.94;100307.59;4986203;28;20506;-76
2021/10/29 15:45:24;;;;;;;8.73;2.60;;;;;;;15.30;62.91;100300.13;4977340;28;20292;-77
2021/10/29 15:50:36;;;;;;;5.88;2.40;;;;;;;15.41;61.96;100308.38;4987499;28;20060;-76
2021/10/29 15:53:03;;;;;;;6.13;2.40;;;;;;;15.31;63.13;100309.59;4991206;28;20027;-76
2021/10/29 15:56:09;;;;;;;9.55;2.55;;;;;;;15.34;62.40;100303.94;4991522;28;20044;-76
2021/10/29 16:01:27;;;;;;;4.15;2.58;;;;;;;15.18;63.19;100299.09;4987692;28;20042;-76
2021/10/29 16:03:52;;;;;;;8.65;2.65;;;;;;;15.19;63.05;100311.16;4983975;28;20124;-76
2021/10/29 16:17:14;;;;;;;10.38;2.53;;;;;;;15.01;63.55;100316.13;4984380;28;20525;-77
2021/10/29 16:19:44;;;;;;;8.32;2.85;;;;;;;14.83;64.29;100314.88;4970220;28;20422;-76
2021/10/29 16:22:45;;;;;;;6.40;3.20;;;;;;;14.81;64.42;100314.28;4993584;28;20041;-76